createdAt,value
2022-11-07T06:48:47.260Z,0.00
2022-11-07T06:51:16.525Z,1.07
2022-11-07T06:53:47.554Z,1.13
2022-11-07T06:56:17.205Z,0.90
2022-11-07T06:58:45.798Z,1.73
2022-11-07T07:01:17.899Z,2.47
2022-11-07T07:04:20.387Z,1.92
2022-11-07T07:07:41.608Z,3.37
2022-11-07T07:10:41.390Z,0.40
2022-11-07T07:13:24.704Z,1.00
2022-11-07T07:15:59.186Z,0.70
2022-11-07T07:18:46.445Z,1.00
2022-11-07T07:21:16.738Z,0.45
2022-11-07T07:24:00.834Z,1.23
2022-11-07T07:26:29.829Z,0.60
2022-11-07T07:29:45.122Z,0.30
2022-11-07T07:32:14.382Z,1.27
2022-11-07T07:34:53.843Z,1.00
2022-11-07T07:37:33.121Z,0.30
2022-11-07T07:40:02.275Z,1.15
2022-11-07T07:42:30.941Z,0.93
2022-11-07T07:44:59.512Z,0.55
2022-11-07T07:47:27.946Z,2.63
2022-11-07T07:49:56.490Z,0.43
2022-11-07T07:52:28.182Z,0.43
2022-11-07T07:54:57.057Z,0.85
2022-11-07T07:57:25.515Z,0.68
2022-11-07T07:59:54.036Z,0.65
2022-11-07T08:02:22.777Z,0.57
2022-11-07T08:04:51.361Z,0.80
2022-11-07T08:07:19.806Z,0.20
2022-11-07T08:09:49.622Z,0.60
2022-11-07T08:12:18.764Z,0.43
2022-11-07T08:14:47.305Z,0.30
2022-11-07T08:17:15.885Z,0.32
2022-11-07T08:19:44.318Z,0.47
2022-11-07T08:22:12.926Z,0.45
2022-11-07T08:24:43.453Z,0.10
2022-11-07T08:27:13.490Z,0.32
2022-11-07T08:29:43.652Z,0.28
2022-11-07T08:32:13.056Z,0.30
2022-11-07T08:34:41.585Z,0.52
2022-11-07T08:37:10.166Z,0.38
2022-11-07T08:39:38.662Z,0.63
2022-11-07T08:42:07.454Z,0.63
2022-11-07T08:44:37.031Z,0.20
2022-11-07T08:47:08.442Z,0.40
2022-11-07T08:49:37.187Z,0.52
2022-11-07T08:52:05.996Z,0.30
2022-11-07T08:54:34.821Z,0.13
2022-11-07T08:57:03.389Z,0.43
2022-11-07T08:59:31.843Z,0.63
2022-11-07T09:02:47.313Z,0.57
2022-11-07T09:04:49.911Z,0.22
2022-11-07T09:07:18.389Z,0.52
2022-11-07T09:09:46.395Z,0.50
2022-11-07T09:12:14.890Z,0.73
2022-11-07T09:14:43.051Z,0.32
2022-11-07T09:17:12.485Z,0.77
2022-11-07T09:19:40.953Z,0.30
2022-11-07T09:22:09.469Z,0.90
2022-11-07T09:24:37.942Z,0.60
2022-11-07T09:27:06.309Z,0.73
2022-11-07T09:29:34.367Z,0.50
2022-11-07T09:32:17.232Z,1.27
2022-11-07T09:34:57.194Z,0.20
2022-11-07T09:37:28.278Z,1.35
2022-11-07T09:39:56.742Z,0.80
2022-11-07T09:42:38.347Z,0.75
2022-11-07T09:45:10.711Z,0.98
2022-11-07T09:47:42.597Z,0.38
2022-11-07T09:50:16.610Z,0.10
2022-11-07T09:52:50.702Z,0.55
2022-11-07T09:55:23.109Z,0.38
2022-11-07T09:57:54.145Z,0.35
2022-11-07T10:00:24.131Z,0.13
2022-11-07T10:02:56.742Z,0.35
2022-11-07T10:05:37.378Z,0.15
2022-11-07T10:08:11.166Z,0.10
2022-11-07T10:10:45.427Z,0.08
2022-11-07T10:13:32.117Z,0.15
2022-11-07T10:16:07.573Z,0.10
2022-11-07T10:18:47.765Z,0.65
2022-11-07T10:21:42.019Z,0.60
2022-11-07T10:24:29.348Z,0.57
2022-11-07T10:26:58.502Z,0.25
2022-11-07T10:29:39.133Z,0.28
2022-11-07T10:32:20.277Z,0.22
2022-11-07T10:34:54.807Z,0.15
2022-11-07T10:37:24.589Z,0.22
2022-11-07T10:39:52.934Z,0.10
2022-11-07T10:42:25.517Z,0.40
2022-11-07T10:44:55.271Z,0.20
2022-11-07T10:47:25.057Z,0.17
2022-11-07T10:49:58.602Z,0.52
2022-11-07T10:52:29.827Z,0.20
2022-11-07T10:55:09.315Z,0.20
2022-11-07T10:57:37.793Z,0.55
2022-11-07T11:00:21.355Z,0.38
2022-11-07T11:02:50.768Z,0.10
2022-11-07T11:05:24.280Z,0.55
2022-11-07T11:07:56.386Z,0.10
2022-11-07T11:10:26.121Z,0.28
2022-11-07T11:12:54.646Z,0.30
2022-11-07T11:15:25.613Z,0.45
2022-11-07T11:18:02.253Z,0.00
2022-11-07T11:20:36.689Z,0.00
2022-11-07T11:23:09.137Z,0.10
2022-11-07T11:25:47.354Z,0.20
2022-11-07T11:28:25.274Z,0.25
2022-11-07T11:30:58.436Z,0.35
2022-11-07T11:33:33.065Z,0.13
2022-11-07T11:36:08.173Z,0.30
2022-11-07T11:38:38.583Z,0.05
2022-11-07T11:41:16.092Z,0.03
2022-11-07T11:43:48.708Z,0.52
2022-11-07T11:46:25.391Z,0.10
2022-11-07T11:49:00.883Z,0.40
2022-11-07T11:51:40.408Z,0.22
2022-11-07T11:54:13.683Z,0.15
2022-11-07T11:56:52.748Z,0.10
2022-11-07T11:59:43.695Z,0.00
2022-11-07T12:02:44.667Z,0.20
2022-11-07T12:05:25.229Z,0.30
2022-11-07T12:08:03.301Z,0.00
2022-11-07T12:10:40.452Z,0.30
2022-11-07T12:13:14.369Z,0.28
2022-11-07T12:15:55.962Z,0.05
2022-11-07T12:18:32.790Z,0.30
2022-11-07T12:21:13.818Z,0.10
2022-11-07T12:24:06.451Z,0.20
2022-11-07T12:26:40.491Z,0.35
2022-11-07T12:29:19.991Z,0.28
2022-11-07T12:31:59.827Z,0.00
2022-11-07T12:34:41.164Z,0.25
2022-11-07T12:37:29.157Z,0.10
2022-11-07T12:40:11.669Z,0.20
2022-11-07T12:42:59.765Z,0.10
2022-11-07T12:45:44.257Z,1.10
2022-11-07T12:48:38.591Z,0.20
2022-11-07T12:51:18.233Z,0.25
2022-11-07T12:53:53.739Z,0.25
2022-11-07T12:56:29.682Z,0.28
2022-11-07T12:59:00.859Z,0.10
2022-11-07T13:01:40.931Z,0.38
2022-11-07T13:04:14.974Z,0.20
2022-11-07T13:06:50.467Z,0.13
2022-11-07T13:09:27.693Z,0.20
2022-11-07T13:12:06.709Z,0.05
2022-11-07T13:14:40.282Z,0.45
2022-11-07T13:17:19.994Z,0.10
2022-11-07T13:20:00.497Z,0.22
2022-11-07T13:22:35.031Z,0.35
2022-11-07T13:25:25.136Z,0.35
2022-11-07T13:28:37.828Z,0.20
2022-11-07T13:31:28.253Z,0.32
2022-11-07T13:34:25.022Z,0.10
2022-11-07T13:37:00.422Z,0.17
2022-11-07T13:39:30.412Z,0.15
2022-11-07T13:42:00.673Z,0.08
2022-11-07T13:44:33.076Z,0.10
2022-11-07T13:47:05.327Z,0.15
2022-11-07T13:49:44.326Z,0.85
2022-11-07T13:52:21.575Z,0.13
2022-11-07T13:54:57.213Z,0.10
2022-11-07T13:57:31.256Z,0.10
2022-11-07T14:00:05.342Z,0.10
2022-11-07T14:02:35.873Z,0.03
2022-11-07T14:05:16.386Z,0.65
2022-11-07T14:08:01.775Z,0.10
2022-11-07T14:10:36.556Z,0.30
2022-11-07T14:13:08.411Z,0.13
2022-11-07T14:15:54.665Z,0.47
2022-11-07T14:18:31.072Z,0.10
2022-11-07T14:21:03.255Z,0.20
2022-11-07T14:23:38.315Z,0.15
2022-11-07T14:26:21.635Z,0.70
2022-11-07T14:28:51.593Z,0.70
2022-11-07T14:31:29.544Z,0.50
2022-11-07T14:34:25.774Z,0.75
2022-11-07T14:36:57.217Z,0.85
2022-11-07T14:39:28.129Z,1.00
2022-11-07T14:41:58.443Z,0.57
2022-11-07T14:44:47.662Z,1.35
2022-11-07T14:47:28.403Z,0.98
2022-11-07T14:49:58.322Z,1.25
2022-11-07T14:52:32.585Z,1.23
2022-11-07T14:55:07.452Z,1.70
2022-11-07T14:57:39.111Z,1.67
2022-11-07T15:00:08.549Z,0.57
2022-11-07T15:03:10.862Z,1.20
2022-11-07T15:05:53.103Z,2.17
2022-11-07T15:08:35.636Z,1.02
2022-11-07T15:11:08.167Z,0.98
2022-11-07T15:13:39.450Z,0.90
2022-11-07T15:16:16.660Z,0.30
2022-11-07T15:19:06.695Z,0.40
2022-11-07T15:21:54.186Z,0.22
2022-11-07T15:24:50.048Z,0.43
2022-11-07T15:27:31.257Z,1.00
2022-11-07T15:30:15.624Z,1.23
2022-11-07T15:32:44.686Z,0.30
2022-11-07T15:35:42.587Z,0.00
2022-11-07T15:38:16.789Z,0.50
2022-11-07T15:41:03.108Z,0.17
2022-11-07T15:50:29.940Z,0.45
2022-11-07T15:53:46.498Z,0.20
2022-11-07T16:00:15.803Z,0.75
2022-11-07T16:02:46.318Z,0.22
2022-11-07T16:05:25.264Z,0.20
2022-11-07T16:07:53.580Z,0.15
2022-11-07T16:10:33.621Z,0.28
2022-11-07T16:13:05.315Z,0.45
2022-11-07T16:15:35.309Z,3.50
2022-11-07T16:18:03.736Z,0.75
2022-11-07T16:20:33.726Z,0.65
2022-11-07T16:23:02.937Z,0.90
2022-11-07T16:25:32.015Z,1.70
2022-11-07T16:28:03.335Z,1.90
2022-11-07T16:30:32.791Z,3.00
2022-11-07T16:33:02.619Z,2.50
2022-11-07T16:35:31.399Z,3.17
2022-11-07T16:38:00.597Z,3.22
2022-11-07T16:40:28.887Z,2.78
2022-11-07T16:42:57.463Z,1.90
2022-11-07T16:45:26.042Z,2.95
2022-11-07T16:47:54.599Z,2.38
2022-11-07T16:50:24.373Z,2.33
2022-11-07T16:52:53.003Z,1.63
2022-11-07T16:55:21.278Z,1.95
2022-11-07T16:57:49.572Z,2.28
2022-11-07T17:00:20.313Z,2.38
2022-11-07T17:02:49.175Z,4.93
2022-11-07T17:05:19.851Z,4.57
2022-11-07T17:07:50.011Z,3.75
2022-11-07T17:10:19.189Z,3.80
2022-11-07T17:12:47.394Z,3.20
2022-11-07T17:15:15.543Z,4.43
2022-11-07T17:17:43.843Z,4.28
2022-11-07T17:20:48.646Z,5.28
2022-11-07T17:23:11.022Z,5.13
2022-11-07T17:25:39.744Z,3.45
2022-11-07T17:28:08.331Z,3.35
2022-11-07T17:30:36.480Z,2.50
2022-11-07T17:33:04.631Z,2.85
2022-11-07T17:35:33.265Z,2.53
2022-11-07T17:38:01.776Z,2.10
2022-11-07T17:40:33.685Z,1.10
2022-11-07T17:43:02.184Z,0.50
2022-11-07T17:45:30.670Z,1.58
2022-11-07T17:47:58.767Z,0.85
2022-11-07T17:50:26.789Z,2.00
2022-11-07T17:52:54.873Z,1.40
2022-11-07T17:55:24.615Z,1.15
2022-11-07T17:57:54.253Z,1.52
2022-11-07T18:00:24.933Z,2.65
2022-11-07T18:02:53.684Z,2.40
2022-11-07T18:05:26.428Z,2.50
2022-11-07T18:07:56.916Z,2.72
2022-11-07T18:10:24.942Z,4.25
2022-11-07T18:12:56.932Z,4.93
2022-11-07T18:15:25.129Z,4.78
2022-11-07T18:17:53.276Z,3.15
2022-11-07T18:20:21.266Z,3.20
2022-11-07T18:22:49.444Z,2.40
2022-11-07T18:25:17.916Z,2.08
2022-11-07T18:27:45.980Z,2.85
2022-11-07T18:30:15.814Z,1.13
2022-11-07T18:32:44.157Z,2.08
2022-11-07T18:35:12.541Z,1.70
2022-11-07T18:37:40.597Z,1.88
2022-11-07T18:40:10.070Z,2.58
2022-11-07T18:42:38.155Z,1.50
2022-11-07T18:45:07.127Z,2.95
2022-11-07T18:47:36.553Z,3.38
2022-11-07T18:50:06.169Z,3.25
2022-11-07T18:52:34.780Z,3.65
2022-11-07T18:55:03.284Z,3.72
2022-11-07T18:57:31.981Z,2.67
2022-11-07T19:00:00.614Z,5.35
2022-11-07T19:02:29.386Z,4.55
2022-11-07T19:04:59.048Z,3.08
2022-11-07T19:07:27.581Z,3.03
2022-11-07T19:09:56.230Z,1.90
2022-11-07T19:12:24.845Z,1.45
2022-11-07T19:14:53.381Z,2.38
2022-11-07T19:17:22.038Z,1.90
2022-11-07T19:19:50.860Z,1.33
2022-11-07T19:22:21.112Z,0.40
2022-11-07T19:24:49.719Z,0.98
2022-11-07T19:27:18.679Z,0.95
2022-11-07T19:29:50.522Z,1.38
2022-11-07T19:32:21.115Z,0.30
2022-11-07T19:34:49.663Z,1.38
2022-11-07T19:37:18.403Z,0.25
2022-11-07T19:39:48.081Z,0.95
2022-11-07T19:42:16.565Z,0.20
2022-11-07T19:44:50.411Z,1.10
2022-11-07T19:47:21.075Z,1.75
2022-11-07T19:49:49.447Z,0.68
2022-11-07T19:52:18.066Z,0.80
2022-11-07T19:54:50.824Z,0.85
2022-11-07T19:57:19.567Z,0.55
2022-11-07T19:59:47.970Z,0.85
2022-11-07T20:02:32.220Z,0.45
2022-11-07T20:05:01.867Z,0.60
2022-11-07T20:07:30.111Z,0.77
2022-11-07T20:10:01.324Z,0.22
2022-11-07T20:12:29.978Z,0.50
2022-11-07T20:14:58.529Z,0.20
2022-11-07T20:17:27.062Z,0.40
2022-11-07T20:19:56.629Z,0.30
2022-11-07T20:22:27.461Z,0.30
2022-11-07T20:24:56.067Z,0.55
2022-11-07T20:27:27.935Z,0.00
2022-11-07T20:29:58.455Z,0.65
2022-11-07T20:32:27.157Z,0.30
2022-11-07T20:34:55.790Z,0.43
2022-11-07T20:37:24.535Z,0.22
2022-11-07T20:39:53.129Z,0.25
2022-11-07T20:42:21.598Z,0.73
2022-11-07T20:44:52.216Z,0.60
2022-11-07T20:47:21.691Z,0.60
2022-11-07T20:49:50.140Z,0.47
2022-11-07T20:52:18.553Z,0.57
2022-11-07T20:54:46.921Z,0.88
2022-11-07T20:57:15.407Z,0.22
2022-11-07T20:59:45.429Z,1.05
2022-11-07T21:02:15.102Z,0.52
2022-11-07T21:05:11.148Z,1.83
2022-11-07T21:07:31.916Z,0.43
2022-11-07T21:10:00.379Z,0.73
2022-11-07T21:12:28.851Z,0.43
2022-11-07T21:14:57.494Z,0.95
2022-11-07T21:17:27.541Z,0.30
2022-11-07T21:19:56.195Z,0.35
2022-11-07T21:22:29.128Z,1.85
2022-11-07T21:24:58.073Z,1.35
2022-11-07T21:27:26.677Z,0.30
